Kirkland, Washington
Current Conditions -  °F | °C
As of 3:53 AM on Wednesday 28 Jan 2015 (Local Time) from KBFI Reporting Station
Overcast Overcast  
Wind Chill: 45°   Ceiling: 1100
Heat Index: 48°   Visibility: 10mi
Dew Point: 42°   Wind: 6mph
Humidity: 80%   Direction: 40°NE
Pressure: 30.34"   Gusts: NA
Location:  47.68°N, 122.2°W
Report Text: KBFI 281153Z 04005KT 10SM OVC011 09/06 A3034 RMK AO2 SLP273 70002 T00890056 10106 20089 51013
Loading
Personal Weather Stations






























Interactive Weather Map New forecast layout! Learn more

10-Day Weather Forecast

Advertisements
Track Severe Weather on mobile